Time;durP1;ratioP1;P1;durP2;ratioP2;P2;SDS_P1;SDS_P2;PMS_P1;PMS_P2;Temp;Humidity;BMP_temperature;BMP_pressure;BME280_temperature;BME280_humidity;BME280_pressure;Samples;Min_cycle;Max_cycle;Signal;HPM_P1;HPM_P2
2022/10/23 00:00:22;;;;;;;18.70;9.68;;;;;;;10.60;100.00;101372.84;4973038;28;20039;-75
2022/10/23 00:02:52;;;;;;;21.58;10.93;;;;;;;10.60;100.00;101378.94;4973303;28;20023;-75
2022/10/23 00:05:19;;;;;;;15.80;9.63;;;;;;;10.62;100.00;101381.50;4972838;28;20034;-75
2022/10/23 00:07:47;;;;;;;17.65;9.88;;;;;;;10.59;100.00;101364.16;4972826;28;20039;-75
2022/10/23 00:10:13;;;;;;;20.65;10.13;;;;;;;10.60;100.00;101365.03;4972985;28;20031;-75
2022/10/23 00:12:38;;;;;;;19.27;9.98;;;;;;;10.55;100.00;101360.72;4973332;28;20045;-75
2022/10/23 00:15:03;;;;;;;19.88;9.90;;;;;;;10.61;100.00;101372.81;4972923;28;20019;-75
2022/10/23 00:17:31;;;;;;;18.10;9.63;;;;;;;10.58;100.00;101364.19;4972684;28;20053;-75
2022/10/23 00:19:56;;;;;;;21.23;9.98;;;;;;;10.62;100.00;101376.28;4973408;28;20500;-75
2022/10/23 00:22:22;;;;;;;19.80;10.02;;;;;;;10.58;100.00;101367.66;4975746;28;20022;-75
2022/10/23 00:24:47;;;;;;;17.88;10.57;;;;;;;10.60;100.00;101370.25;4973483;28;20027;-75
2022/10/23 00:27:12;;;;;;;20.13;10.25;;;;;;;10.59;100.00;101373.72;4973190;28;20085;-75
2022/10/23 00:29:38;;;;;;;21.05;10.13;;;;;;;10.59;100.00;101376.31;4970984;28;20102;-75
2022/10/23 00:32:03;;;;;;;17.73;11.05;;;;;;;10.58;100.00;101358.97;4971623;28;20043;-75
2022/10/23 00:34:28;;;;;;;17.88;10.05;;;;;;;10.57;100.00;101362.47;4970375;28;20027;-75
2022/10/23 00:36:54;;;;;;;16.65;9.88;;;;;;;10.58;100.00;101366.78;4970720;28;20113;-75
2022/10/23 00:39:19;;;;;;;20.85;10.45;;;;;;;10.61;100.00;101359.78;4970483;28;20039;-75
2022/10/23 00:41:44;;;;;;;19.15;10.27;;;;;;;10.64;100.00;101366.69;4974543;28;20041;-75
2022/10/23 00:44:29;;;;;;;19.90;10.52;;;;;;;10.63;100.00;101367.59;4978556;28;20039;-75
2022/10/23 00:46:56;;;;;;;20.48;9.95;;;;;;;10.64;100.00;101356.28;4971604;28;20035;-75
2022/10/23 00:49:22;;;;;;;15.55;9.77;;;;;;;10.60;100.00;101352.84;4970873;28;20027;-75
2022/10/23 00:51:54;;;;;;;17.75;10.02;;;;;;;10.65;100.00;101363.19;4976907;28;20037;-75
2022/10/23 00:54:23;;;;;;;17.88;9.98;;;;;;;10.57;100.00;101347.69;4972597;28;20027;-75
2022/10/23 00:56:48;;;;;;;17.65;10.23;;;;;;;10.63;100.00;101359.78;4970234;28;20033;-75
2022/10/23 00:59:14;;;;;;;18.40;10.52;;;;;;;10.65;100.00;101357.97;4978229;28;20026;-74
2022/10/23 01:01:40;;;;;;;19.77;9.45;;;;;;;10.63;100.00;101365.00;4971980;28;20033;-75
2022/10/23 01:04:06;;;;;;;20.73;9.70;;;;;;;10.64;100.00;101362.34;4971982;28;20027;-75
2022/10/23 01:06:39;;;;;;;21.25;9.55;;;;;;;10.64;100.00;101351.91;4971000;28;20034;-75
2022/10/23 01:09:16;;;;;;;19.98;10.02;;;;;;;10.60;100.00;101341.56;4972654;28;20085;-75
2022/10/23 01:11:51;;;;;;;17.50;9.07;;;;;;;10.58;100.00;101353.75;4971537;28;20034;-75
2022/10/23 01:14:35;;;;;;;16.77;8.80;;;;;;;10.59;100.00;101355.47;4979082;28;20417;-76
2022/10/23 01:17:24;;;;;;;20.65;9.18;;;;;;;10.54;100.00;101345.97;4975083;28;20022;-76
2022/10/23 01:20:14;;;;;;;20.40;9.32;;;;;;;10.50;100.00;101346.91;4971905;28;20110;-75
2022/10/23 01:23:09;;;;;;;16.38;9.00;;;;;;;10.47;100.00;101348.72;4971728;28;20051;-75
2022/10/23 01:25:53;;;;;;;18.40;9.65;;;;;;;10.44;100.00;101343.53;4970779;28;20026;-76
2022/10/23 01:28:23;;;;;;;;;;;;;;;10.39;100.00;101338.38;4972265;28;20070;-75
2022/10/23 01:30:48;;;;;;;17.80;9.23;;;;;;;10.35;100.00;101331.50;4972120;28;20370;-75
2022/10/23 01:33:21;;;;;;;15.25;9.00;;;;;;;10.34;100.00;101326.31;4971311;28;20034;-75
2022/10/23 01:35:51;;;;;;;17.85;9.43;;;;;;;10.34;100.00;101335.00;4972269;28;20065;-75
2022/10/23 01:38:24;;;;;;;22.58;10.57;;;;;;;10.33;100.00;101328.03;4971817;28;20026;-75
2022/10/23 01:41:01;;;;;;;15.52;9.40;;;;;;;10.33;100.00;101322.81;4971597;28;20058;-75
2022/10/23 01:43:33;;;;;;;19.45;9.90;;;;;;;10.34;100.00;101319.34;4971274;28;20042;-75
2022/10/23 01:46:03;;;;;;;20.08;9.52;;;;;;;10.36;100.00;101320.16;4972217;28;20027;-76
2022/10/23 01:48:30;;;;;;;17.63;10.00;;;;;;;10.35;100.00;101312.41;4971460;28;20031;-75
2022/10/23 01:50:59;;;;;;;18.23;9.68;;;;;;;10.34;100.00;101308.06;4980284;28;20084;-75
2022/10/23 01:53:29;;;;;;;19.55;10.07;;;;;;;10.31;100.00;101293.34;4971183;28;20025;-75
2022/10/23 01:55:56;;;;;;;22.25;9.38;;;;;;;10.37;100.00;101305.44;4971278;28;20113;-75
2022/10/23 01:58:24;;;;;;;19.45;9.68;;;;;;;10.39;100.00;101309.69;4969694;28;20038;-75
2022/10/23 02:00:51;;;;;;;19.17;10.57;;;;;;;10.43;100.00;101303.59;4970550;28;20102;-75
2022/10/23 02:03:18;;;;;;;17.65;9.55;;;;;;;10.45;100.00;101307.00;4973814;28;20474;-75
2022/10/23 02:05:44;;;;;;;21.40;10.68;;;;;;;10.46;100.00;101303.53;4970764;28;20035;-75
2022/10/23 02:08:09;;;;;;;17.25;10.65;;;;;;;10.43;100.00;101302.69;4972869;28;20034;-75
2022/10/23 02:10:54;;;;;;;22.98;10.15;;;;;;;10.48;100.00;101304.34;4969868;28;20042;-75
2022/10/23 02:13:28;;;;;;;18.50;10.57;;;;;;;10.51;100.00;101306.06;4968416;28;20081;-75
2022/10/23 02:16:06;;;;;;;20.23;10.40;;;;;;;10.44;100.00;101287.06;4971373;28;20040;-75
2022/10/23 02:18:51;;;;;;;22.05;10.55;;;;;;;10.48;100.00;101304.34;4977935;28;20031;-75
2022/10/23 02:21:26;;;;;;;22.25;10.68;;;;;;;10.48;100.00;101295.69;4976490;28;20085;-75
2022/10/23 02:23:58;;;;;;;25.20;10.32;;;;;;;10.48;100.00;101293.06;4970129;28;20035;-75
2022/10/23 02:26:29;;;;;;;22.50;10.32;;;;;;;10.52;100.00;101302.56;4974663;28;20110;-75
2022/10/23 02:29:04;;;;;;;22.80;10.32;;;;;;;10.53;100.00;101297.34;4975013;28;20034;-75
2022/10/23 02:31:30;;;;;;;16.55;10.05;;;;;;;10.52;100.00;101287.78;4974503;28;20031;-75
2022/10/23 02:33:56;;;;;;;18.55;9.95;;;;;;;10.50;100.00;101279.13;4987905;28;20019;-75
2022/10/23 02:36:21;;;;;;;18.08;9.95;;;;;;;10.52;100.00;101277.34;4974882;28;20158;-75
2022/10/23 02:38:47;;;;;;;18.90;10.32;;;;;;;10.57;100.00;101273.81;4975552;28;20031;-75
2022/10/23 02:41:16;;;;;;;23.02;11.05;;;;;;;10.60;100.00;101263.34;4975065;28;20027;-75
2022/10/23 02:43:54;;;;;;;18.23;10.45;;;;;;;10.57;100.00;101248.59;4971556;28;20121;-75
2022/10/23 02:46:28;;;;;;;16.35;10.40;;;;;;;10.61;100.00;101244.19;4974475;28;20019;-75
2022/10/23 02:49:08;;;;;;;22.65;9.85;;;;;;;10.63;100.00;101242.44;4963018;28;20058;-75
2022/10/23 02:51:43;;;;;;;22.90;10.80;;;;;;;10.66;100.00;101232.81;4973626;28;20029;-75
2022/10/23 02:54:45;;;;;;;20.60;10.68;;;;;;;10.69;100.00;101227.56;4961538;28;20114;-75
2022/10/23 02:57:27;;;;;;;23.45;11.18;;;;;;;10.68;100.00;101207.56;4974119;28;20031;-75
2022/10/23 03:00:05;;;;;;;22.02;10.73;;;;;;;10.76;100.00;101218.72;4961887;28;20019;-75
2022/10/23 03:02:44;;;;;;;20.90;10.90;;;;;;;10.77;100.00;101216.97;4974266;28;20027;-75
2022/10/23 03:05:18;;;;;;;21.67;11.13;;;;;;;10.81;100.00;101209.94;4971546;28;20027;-75
2022/10/23 03:07:44;;;;;;;17.95;10.75;;;;;;;10.81;100.00;101208.19;4974692;28;20027;-75
2022/10/23 03:10:10;;;;;;;24.08;11.15;;;;;;;10.81;100.00;101204.72;4978220;28;20031;-75
2022/10/23 03:12:36;;;;;;;23.88;11.05;;;;;;;10.76;100.00;101197.84;4973702;28;20093;-76
2022/10/23 03:15:01;;;;;;;21.90;11.10;;;;;;;10.75;100.00;101198.72;4974664;28;20475;-75
2022/10/23 03:17:27;;;;;;;20.98;11.02;;;;;;;10.77;100.00;101198.72;4971199;28;20042;-75
2022/10/23 03:19:52;;;;;;;20.77;11.60;;;;;;;10.74;100.00;101196.16;4972804;28;20026;-75
2022/10/23 03:22:17;;;;;;;23.40;10.75;;;;;;;10.73;100.00;101181.41;4972142;28;20470;-75
2022/10/23 03:24:43;;;;;;;18.45;10.88;;;;;;;10.74;100.00;101194.41;4970424;28;20073;-75
2022/10/23 03:27:10;;;;;;;20.95;11.63;;;;;;;10.73;100.00;101189.22;4973831;28;20023;-76
2022/10/23 03:29:35;;;;;;;25.13;11.07;;;;;;;10.74;100.00;101189.19;4975140;28;20486;-75
2022/10/23 03:32:01;;;;;;;20.30;10.93;;;;;;;10.75;100.00;101187.44;4974616;28;20038;-75
2022/10/23 03:34:26;;;;;;;26.80;11.88;;;;;;;10.74;100.00;101177.91;4983139;28;20458;-75
2022/10/23 03:36:51;;;;;;;23.52;11.65;;;;;;;10.82;100.00;101186.44;4978007;28;20038;-75
2022/10/23 03:39:16;;;;;;;19.35;11.63;;;;;;;10.84;100.00;101179.44;4972835;28;20085;-75
2022/10/23 03:41:42;;;;;;;21.27;11.77;;;;;;;10.83;100.00;101177.72;4973863;28;20056;-75
2022/10/23 03:44:07;;;;;;;24.20;11.85;;;;;;;10.88;100.00;101173.28;4973989;28;20143;-74
2022/10/23 03:46:32;;;;;;;24.38;11.57;;;;;;;10.88;100.00;101173.28;4981711;28;20540;-75
2022/10/23 03:48:58;;;;;;;19.48;11.55;;;;;;;10.89;100.00;101171.53;4976153;28;20022;-75
2022/10/23 03:51:24;;;;;;;20.23;11.60;;;;;;;10.93;100.00;101166.22;4973331;28;20027;-75
2022/10/23 03:53:49;;;;;;;20.27;11.30;;;;;;;10.95;100.00;101160.97;4973112;28;20030;-75
2022/10/23 03:56:15;;;;;;;19.60;10.48;;;;;;;10.96;100.00;101157.50;4973063;28;20077;-75
2022/10/23 03:58:40;;;;;;;22.83;11.40;;;;;;;10.96;100.00;101154.88;4973555;28;20106;-75
2022/10/23 04:01:05;;;;;;;17.67;10.73;;;;;;;10.97;100.00;101146.16;4972959;28;20109;-75
2022/10/23 04:03:31;;;;;;;21.65;10.82;;;;;;;10.94;100.00;101136.63;4972950;28;20034;-75
2022/10/23 04:05:56;;;;;;;17.25;10.73;;;;;;;10.96;100.00;101132.25;4973900;28;20081;-75
2022/10/23 04:08:21;;;;;;;20.33;9.88;;;;;;;10.96;100.00;101132.25;4972186;28;20105;-75
2022/10/23 04:10:46;;;;;;;20.17;9.73;;;;;;;10.94;100.00;101128.81;4973592;28;20033;-75
2022/10/23 04:13:12;;;;;;;17.40;10.60;;;;;;;10.93;100.00;101136.69;4973501;28;20110;-75
2022/10/23 04:15:37;;;;;;;21.55;10.25;;;;;;;10.95;100.00;101125.34;4971687;28;20038;-75
2022/10/23 04:18:03;;;;;;;24.13;10.70;;;;;;;10.91;100.00;101121.03;4973280;28;20034;-75
2022/10/23 04:20:28;;;;;;;17.83;10.38;;;;;;;10.96;100.00;101116.59;4971464;28;20045;-75
2022/10/23 04:22:53;;;;;;;20.30;9.98;;;;;;;10.95;100.00;101130.56;4971340;28;20033;-75
2022/10/23 04:25:18;;;;;;;23.83;10.27;;;;;;;10.97;100.00;101126.13;4971760;28;20085;-75
2022/10/23 04:27:44;;;;;;;19.70;10.48;;;;;;;10.97;100.00;101135.72;4971259;28;20063;-75
2022/10/23 04:30:10;;;;;;;17.52;9.80;;;;;;;10.96;100.00;101129.66;4971150;28;20029;-75
2022/10/23 04:32:35;;;;;;;15.90;10.02;;;;;;;10.96;100.00;101134.88;4970135;28;20027;-75
2022/10/23 04:35:00;;;;;;;21.48;9.73;;;;;;;10.94;100.00;101130.56;4971145;28;20118;-75
2022/10/23 04:37:27;;;;;;;20.92;10.80;;;;;;;10.90;100.00;101129.78;4971594;28;20466;-75
2022/10/23 04:39:52;;;;;;;17.02;9.70;;;;;;;10.92;100.00;101127.13;4971520;28;20053;-75
2022/10/23 04:42:17;;;;;;;19.35;9.35;;;;;;;10.91;100.00;101123.66;4970883;28;20534;-76
2022/10/23 04:44:42;;;;;;;21.65;10.48;;;;;;;10.91;100.00;101128.88;4972886;28;20031;-75
2022/10/23 04:47:08;;;;;;;18.77;10.45;;;;;;;10.90;100.00;101116.72;4969223;28;20085;-75
2022/10/23 04:49:33;;;;;;;20.83;10.05;;;;;;;10.91;100.00;101125.41;4970408;28;20027;-75
2022/10/23 04:51:58;;;;;;;15.75;9.85;;;;;;;10.86;100.00;101116.84;4971131;28;20041;-75
2022/10/23 04:54:24;;;;;;;17.45;9.95;;;;;;;10.84;100.00;101113.38;4970253;28;20057;-75
2022/10/23 04:56:49;;;;;;;18.23;9.82;;;;;;;10.87;100.00;101116.78;4970332;28;20031;-75
2022/10/23 04:59:14;;;;;;;17.98;9.98;;;;;;;10.85;100.00;101112.50;4971561;28;20031;-75
2022/10/23 05:01:39;;;;;;;15.18;9.88;;;;;;;10.82;100.00;101102.13;4970792;28;20046;-75
2022/10/23 05:04:05;;;;;;;18.90;10.50;;;;;;;10.83;100.00;101109.06;4969582;28;20030;-75
2022/10/23 05:06:30;;;;;;;19.85;11.10;;;;;;;10.82;100.00;101113.41;4968970;28;20442;-75
2022/10/23 05:08:55;;;;;;;17.15;10.18;;;;;;;10.87;100.00;101108.09;4972878;28;20113;-75
2022/10/23 05:11:21;;;;;;;16.40;10.70;;;;;;;10.84;100.00;101098.59;4969022;28;20038;-75
2022/10/23 05:13:46;;;;;;;17.40;10.63;;;;;;;10.87;100.00;101097.69;4972694;28;20085;-75
2022/10/23 05:16:31;;;;;;;17.65;9.82;;;;;;;10.88;100.00;101102.84;4971250;28;20023;-75
2022/10/23 05:18:58;;;;;;;17.15;9.38;;;;;;;10.87;100.00;101095.06;4969700;28;20062;-75
2022/10/23 05:21:28;;;;;;;18.42;10.25;;;;;;;10.90;100.00;101097.63;4970067;28;20383;-75
2022/10/23 05:23:56;;;;;;;17.20;10.05;;;;;;;10.87;100.00;101080.28;4963214;28;20110;-75
2022/10/23 05:26:21;;;;;;;18.33;10.50;;;;;;;10.94;100.00;101094.91;4975167;28;20026;-75
2022/10/23 05:28:47;;;;;;;20.67;9.95;;;;;;;10.95;100.00;101094.03;4972249;28;20030;-75
2022/10/23 05:31:14;;;;;;;18.63;10.82;;;;;;;10.95;100.00;101094.03;4971265;28;20026;-75
2022/10/23 05:33:40;;;;;;;18.17;9.77;;;;;;;10.91;100.00;101087.13;4972071;28;20019;-75
2022/10/23 05:36:06;;;;;;;18.35;9.60;;;;;;;10.92;100.00;101083.66;4972542;28;20038;-75
2022/10/23 05:38:33;;;;;;;14.77;8.82;;;;;;;10.91;100.00;101081.91;4972574;28;20027;-75
2022/10/23 05:40:59;;;;;;;18.83;9.63;;;;;;;10.90;100.00;101080.22;4972502;28;20117;-75
2022/10/23 05:43:26;;;;;;;13.90;9.70;;;;;;;10.94;100.00;101081.84;4970757;28;20447;-75
2022/10/23 05:45:51;;;;;;;20.30;9.32;;;;;;;10.93;100.00;101077.53;4971582;28;20037;-75
2022/10/23 05:48:16;;;;;;;15.30;9.25;;;;;;;10.94;100.00;101078.41;4971415;28;20026;-75
2022/10/23 05:50:42;;;;;;;18.65;9.55;;;;;;;10.92;100.00;101069.72;4971467;28;20126;-75
2022/10/23 05:53:09;;;;;;;13.90;9.10;;;;;;;10.93;100.00;101080.16;4971721;28;20039;-75
2022/10/23 05:55:34;;;;;;;12.10;8.77;;;;;;;10.91;100.00;101076.69;4971197;28;20015;-75
2022/10/23 05:58:04;;;;;;;17.45;9.68;;;;;;;10.94;100.00;101068.81;4972251;28;20113;-75
2022/10/23 06:00:29;;;;;;;17.10;9.75;;;;;;;10.98;100.00;101075.66;4970215;28;20023;-75
2022/10/23 06:02:54;;;;;;;14.15;9.10;;;;;;;10.97;100.00;101065.28;4972152;28;20102;-75
2022/10/23 06:05:19;;;;;;;17.65;9.60;;;;;;;10.99;100.00;101061.75;4971547;28;20550;-75
2022/10/23 06:07:45;;;;;;;14.40;9.23;;;;;;;10.99;100.00;101059.16;4970860;28;20029;-75
2022/10/23 06:10:11;;;;;;;18.58;8.90;;;;;;;11.01;100.00;101059.97;4971638;28;20082;-75
2022/10/23 06:12:36;;;;;;;18.60;9.73;;;;;;;11.02;100.00;101050.41;4971465;28;20500;-75
2022/10/23 06:15:02;;;;;;;15.18;9.43;;;;;;;11.02;100.00;101053.88;4978344;28;20068;-75
2022/10/23 06:17:28;;;;;;;19.38;8.75;;;;;;;11.02;100.00;101058.25;4977755;28;20034;-75
2022/10/23 06:19:59;;;;;;;16.52;9.70;;;;;;;11.06;100.00;101054.66;4971068;28;20030;-75
2022/10/23 06:22:25;;;;;;;17.77;9.35;;;;;;;11.09;100.00;101049.38;4967912;28;20027;-75
2022/10/23 06:24:51;;;;;;;15.85;9.43;;;;;;;11.12;100.00;101051.06;4970556;28;20047;-75
2022/10/23 06:27:16;;;;;;;18.23;9.32;;;;;;;11.13;100.00;101060.59;4981152;28;20031;-75
2022/10/23 06:29:41;;;;;;;16.42;9.23;;;;;;;11.13;100.00;101047.56;4969102;28;20471;-75
2022/10/23 06:32:07;;;;;;;17.65;9.20;;;;;;;11.22;100.00;101049.97;4974008;28;20023;-75
2022/10/23 06:34:32;;;;;;;16.45;8.73;;;;;;;11.25;100.00;101039.44;4968067;28;20030;-75
2022/10/23 06:36:57;;;;;;;14.88;9.40;;;;;;;11.28;100.00;101033.28;4970661;28;20038;-75
2022/10/23 06:39:23;;;;;;;16.10;8.70;;;;;;;11.18;100.00;101012.63;4981779;28;20037;-75
2022/10/23 06:41:48;;;;;;;15.85;8.95;;;;;;;11.31;100.00;101028.00;4972962;28;20023;-75
2022/10/23 06:44:13;;;;;;;14.75;8.25;;;;;;;11.37;100.00;101028.69;4979241;28;20058;-75
2022/10/23 06:46:39;;;;;;;13.85;8.63;;;;;;;11.40;100.00;101023.41;4971321;28;20062;-75
2022/10/23 06:49:04;;;;;;;14.73;8.77;;;;;;;11.41;100.00;101021.66;4970888;28;20034;-75
2022/10/23 06:51:29;;;;;;;18.10;8.30;;;;;;;11.41;100.00;101008.59;4970710;28;20033;-75
2022/10/23 06:53:55;;;;;;;16.60;8.18;;;;;;;11.37;100.00;100996.53;4970128;28;20018;-75
2022/10/23 06:56:21;;;;;;;14.52;8.13;;;;;;;11.45;100.00;101005.91;4977289;28;20485;-75
2022/10/23 06:58:47;;;;;;;17.27;8.55;;;;;;;11.53;100.00;101004.84;4972372;28;20487;-76
2022/10/23 07:01:13;;;;;;;14.15;7.88;;;;;;;11.55;100.00;101010.91;4974474;28;20030;-75
2022/10/23 07:03:39;;;;;;;14.05;8.13;;;;;;;11.57;100.00;101009.09;4974118;28;20027;-75
2022/10/23 07:06:09;;;;;;;14.50;7.53;;;;;;;11.63;100.00;101016.78;4974688;28;20026;-75
2022/10/23 07:08:35;;;;;;;14.55;7.60;;;;;;;11.65;100.00;101017.59;4974679;28;20450;-75
2022/10/23 07:11:05;;;;;;;18.48;7.25;;;;;;;11.70;100.00;101021.78;4973971;28;20081;-75
2022/10/23 07:13:34;;;;;;;13.50;7.22;;;;;;;11.73;100.00;101015.63;4974149;28;20027;-75
2022/10/23 07:16:11;;;;;;;17.52;7.28;;;;;;;11.74;100.00;100996.47;4974887;28;20125;-76
2022/10/23 07:18:36;;;;;;;11.05;6.88;;;;;;;11.84;100.00;101007.56;4973462;28;20034;-75
2022/10/23 07:21:01;;;;;;;10.60;6.53;;;;;;;11.85;100.00;100993.63;4973913;28;20041;-75
2022/10/23 07:23:27;;;;;;;13.13;7.30;;;;;;;11.87;100.00;100995.28;4960442;28;20018;-75
2022/10/23 07:25:52;;;;;;;15.98;6.90;;;;;;;11.91;100.00;100996.91;4974020;28;20474;-75
2022/10/23 07:28:17;;;;;;;11.60;6.55;;;;;;;11.94;100.00;100989.00;4973813;28;20118;-75
2022/10/23 07:30:42;;;;;;;12.20;6.72;;;;;;;12.01;100.00;100996.69;4973045;28;20030;-75
2022/10/23 07:33:11;;;;;;;11.32;6.03;;;;;;;12.08;100.00;100993.84;4977607;28;20039;-75
2022/10/23 07:35:38;;;;;;;11.88;6.25;;;;;;;12.14;100.00;100987.59;4972604;28;20538;-75
2022/10/23 07:38:03;;;;;;;15.13;5.97;;;;;;;12.19;100.00;100990.94;4968612;28;20094;-75
2022/10/23 07:40:29;;;;;;;12.25;6.00;;;;;;;12.22;100.00;100980.41;4973223;28;20493;-75
2022/10/23 07:42:55;;;;;;;15.18;5.57;;;;;;;12.26;100.00;100982.06;4974173;28;20586;-76
2022/10/23 07:45:20;;;;;;;9.10;5.80;;;;;;;12.34;100.00;100987.06;4970043;28;20498;-76
2022/10/23 07:47:50;;;;;;;10.13;5.47;;;;;;;12.35;100.00;100978.28;4973161;28;20066;-76
2022/10/23 07:50:15;;;;;;;9.82;5.25;;;;;;;12.41;100.00;100978.97;4972512;28;20026;-75
2022/10/23 07:52:41;;;;;;;9.10;5.40;;;;;;;12.50;100.00;100984.84;4972183;28;20041;-76
2022/10/23 07:55:06;;;;;;;10.25;5.35;;;;;;;12.55;100.00;100981.19;4974051;28;20018;-75
2022/10/23 07:57:32;;;;;;;13.20;5.28;;;;;;;12.59;100.00;100982.81;4972418;28;20165;-75
2022/10/23 07:59:57;;;;;;;10.25;4.60;;;;;;;12.62;100.00;100976.63;4969069;28;20034;-75
2022/10/23 08:02:22;;;;;;;7.20;5.28;;;;;;;12.67;100.00;100977.34;4970920;28;20026;-76
2022/10/23 08:04:49;;;;;;;11.30;5.07;;;;;;;12.77;100.00;100980.56;4974273;28;20474;-76
2022/10/23 08:07:14;;;;;;;10.45;5.65;;;;;;;12.77;100.00;100970.94;4972721;28;20026;-75
2022/10/23 08:09:39;;;;;;;9.98;5.38;;;;;;;12.83;100.00;100968.16;4973028;28;20503;-75
2022/10/23 08:12:05;;;;;;;10.32;4.85;;;;;;;12.94;100.00;100977.41;4972651;28;20030;-76
2022/10/23 08:14:30;;;;;;;9.07;5.15;;;;;;;13.00;100.00;100975.47;4971836;28;20031;-76
2022/10/23 08:16:56;;;;;;;9.30;4.55;;;;;;;13.04;100.00;100974.44;4973471;28;20038;-81
2022/10/23 08:19:21;;;;;;;12.45;5.32;;;;;;;13.07;100.00;100963.88;4969517;28;20082;-76
2022/10/23 08:21:46;;;;;;;10.70;4.88;;;;;;;13.17;100.00;100974.94;4971716;28;20121;-76
2022/10/23 08:24:12;;;;;;;8.90;5.60;;;;;;;13.18;100.00;100960.94;4973164;28;20489;-76
2022/10/23 08:26:38;;;;;;;8.40;5.05;;;;;;;13.31;100.00;100969.31;4972728;28;20042;-76
2022/10/23 08:29:03;;;;;;;10.63;5.57;;;;;;;13.33;100.00;100962.22;4969493;28;20026;-76
2022/10/23 08:31:29;;;;;;;8.98;5.18;;;;;;;13.26;100.00;100942.41;4969999;28;20035;-76
2022/10/23 08:33:54;;;;;;;9.60;5.07;;;;;;;13.36;100.00;100956.91;4973354;28;20023;-76
2022/10/23 08:36:22;;;;;;;8.77;5.40;;;;;;;13.38;100.00;100962.09;4971421;28;20023;-76
2022/10/23 08:38:48;;;;;;;9.88;5.10;;;;;;;13.34;100.00;100954.34;4971992;28;20034;-76
2022/10/23 08:41:32;;;;;;;11.52;5.40;;;;;;;13.38;100.00;100951.63;4967261;28;20022;-75
2022/10/23 08:44:00;;;;;;;;;;;;;;;13.41;100.00;100947.13;4965350;28;20047;-75
2022/10/23 08:46:30;;;;;;;9.00;5.82;;;;;;;13.41;100.00;100946.28;4971145;28;19972;-76
2022/10/23 08:49:08;;;;;;;8.70;4.95;;;;;;;13.43;100.00;100934.81;4969702;28;20387;-76
2022/10/23 08:51:43;;;;;;;11.70;5.68;;;;;;;13.49;100.00;100937.25;4971730;28;20505;-76
2022/10/23 08:54:21;;;;;;;8.40;5.70;;;;;;;13.58;100.00;100943.94;4972977;28;20023;-76
2022/10/23 08:57:11;;;;;;;8.52;6.28;;;;;;;13.65;100.00;100940.19;4972324;28;20097;-76
2022/10/23 08:59:49;;;;;;;9.50;5.72;;;;;;;13.70;100.00;100927.81;4959370;28;20026;-76
2022/10/23 09:02:29;;;;;;;8.98;5.85;;;;;;;13.71;100.00;100933.91;4971881;28;20026;-76
2022/10/23 09:04:57;;;;;;;8.18;5.93;;;;;;;13.71;100.00;100918.19;4972205;28;20106;-76
2022/10/23 09:07:38;;;;;;;10.30;5.70;;;;;;;13.70;100.00;100912.09;4972014;28;20054;-76
2022/10/23 09:10:14;;;;;;;10.40;5.35;;;;;;;13.76;100.00;100911.00;4970460;28;20037;-77
2022/10/23 09:12:40;;;;;;;13.63;6.18;;;;;;;13.84;100.00;100908.13;4972282;28;20093;-78
2022/10/23 09:15:30;;;;;;;9.65;5.43;;;;;;;13.99;100.00;100902.31;4972772;28;20359;-77
2022/10/23 09:18:06;;;;;;;8.77;5.20;;;;;;;14.09;100.00;100914.16;4968712;28;20089;-78
2022/10/23 09:20:33;;;;;;;12.20;5.20;;;;;;;14.13;100.00;100900.03;4970905;28;20034;-78
2022/10/23 09:23:14;;;;;;;8.80;5.18;;;;;;;14.14;100.00;100888.63;4971975;28;20027;-78
2022/10/23 09:25:41;;;;;;;8.32;5.18;;;;;;;14.16;100.00;100893.81;4972324;28;20494;-78
2022/10/23 09:28:18;;;;;;;10.30;4.95;;;;;;;14.16;100.00;100886.81;4972288;28;20039;-78
2022/10/23 09:30:43;;;;;;;7.43;4.93;;;;;;;14.11;100.00;100880.03;4971134;28;20463;-78
2022/10/23 09:33:21;;;;;;;6.65;4.53;;;;;;;14.17;100.00;100879.81;4972552;28;20045;-78
2022/10/23 09:36:02;;;;;;;10.07;5.00;;;;;;;14.19;100.00;100873.59;4972185;28;20041;-78
2022/10/23 09:38:36;;;;;;;13.18;5.18;;;;;;;14.12;100.00;100850.28;4970440;28;20030;-78
2022/10/23 09:41:06;;;;;;;9.68;5.22;;;;;;;14.19;100.00;100854.38;4970350;28;20122;-78
2022/10/23 09:43:32;;;;;;;10.40;5.13;;;;;;;14.21;100.00;100852.56;4971292;28;20050;-78
2022/10/23 09:46:00;;;;;;;12.02;5.22;;;;;;;14.26;100.00;100859.34;4971812;28;20027;-78
2022/10/23 09:48:26;;;;;;;14.10;5.88;;;;;;;14.31;100.00;100866.16;4971351;28;20048;-78
2022/10/23 09:50:59;;;;;;;10.18;5.00;;;;;;;14.36;100.00;100862.47;4972483;28;20470;-78
2022/10/23 09:53:30;;;;;;;9.25;5.40;;;;;;;14.41;100.00;100862.28;4970878;28;20031;-78
2022/10/23 09:56:00;;;;;;;10.40;5.25;;;;;;;14.49;100.00;100854.97;4972095;28;20471;-78
2022/10/23 09:58:53;;;;;;;12.02;5.43;;;;;;;14.63;100.00;100857.06;4970778;28;20034;-78
2022/10/23 10:01:37;;;;;;;9.02;5.40;;;;;;;14.76;100.00;100847.78;4958473;28;20371;-78
2022/10/23 10:04:02;;;;;;;7.95;5.35;;;;;;;14.78;100.00;100837.22;4971913;28;20030;-78
2022/10/23 10:06:32;;;;;;;9.98;4.55;;;;;;;14.78;100.00;100827.59;4970881;28;20042;-78
2022/10/23 10:09:15;;;;;;;7.15;4.68;;;;;;;14.82;100.00;100823.91;4972434;28;20027;-78
2022/10/23 10:11:52;;;;;;;6.80;4.40;;;;;;;14.85;100.00;100810.66;4959775;28;20394;-78
2022/10/23 10:14:27;;;;;;;10.93;4.10;;;;;;;14.90;100.00;100813.94;4970562;28;20127;-78
2022/10/23 10:17:10;;;;;;;10.98;4.43;;;;;;;14.94;100.00;100804.16;4972267;28;20023;-78
2022/10/23 10:19:47;;;;;;;18.00;4.70;;;;;;;14.88;100.00;100800.03;4969471;28;20038;-78
2022/10/23 10:22:59;;;;;;;6.88;4.07;;;;;;;14.91;100.00;100788.53;4964009;28;20082;-78
2022/10/23 10:25:32;;;;;;;7.90;4.03;;;;;;;14.99;100.00;100799.59;4921524;29;20396;-80
2022/10/23 10:28:22;;;;;;;7.67;4.40;;;;;;;15.09;100.00;100787.78;4966574;28;20046;-81
2022/10/23 10:31:33;;;;;;;6.28;3.85;;;;;;;15.18;100.00;100800.50;4971411;28;20479;-83
2022/10/23 10:34:05;;;;;;;5.82;3.80;;;;;;;15.23;100.00;100806.41;4931835;28;20082;-75
2022/10/23 10:36:33;;;;;;;27.63;5.00;;;;;;;15.45;100.00;100790.56;4974352;28;20378;-78
2022/10/23 10:39:01;;;;;;;12.95;3.78;;;;;;;15.53;100.00;100791.97;4975730;28;20093;-78
2022/10/23 10:41:42;;;;;;;7.72;3.60;;;;;;;15.66;100.00;100794.03;4973591;28;20019;-78
2022/10/23 10:44:27;;;;;;;7.93;4.18;;;;;;;15.80;100.00;100785.53;4974621;28;20483;-79
2022/10/23 10:47:08;;;;;;;7.22;3.90;;;;;;;15.89;100.00;100771.97;4973841;28;20023;-79
2022/10/23 10:49:41;;;;;;;8.15;3.45;;;;;;;16.12;100.00;100775.25;4963780;28;20026;-79
2022/10/23 10:52:06;;;;;;;;;;;;;;;16.35;100.00;100766.28;4975792;28;20018;-78
2022/10/23 10:54:59;;;;;;;7.15;4.05;;;;;;;16.45;100.00;100759.66;4972097;28;19929;-79
2022/10/23 10:57:32;;;;;;;5.18;3.53;;;;;;;16.61;100.00;100751.81;4967908;28;20039;-79
2022/10/23 11:00:03;;;;;;;9.88;3.75;;;;;;;16.74;100.00;100738.91;4975133;28;20426;-79
2022/10/23 11:02:38;;;;;;;6.97;3.97;;;;;;;16.90;100.00;100755.66;4972978;28;20038;-79
2022/10/23 11:05:03;;;;;;;9.07;3.38;;;;;;;16.98;100.00;100755.28;4968135;28;20081;-79
2022/10/23 11:07:35;;;;;;;7.73;3.37;;;;;;;17.08;100.00;100759.97;4974092;28;20387;-78
2022/10/23 11:10:12;;;;;;;8.70;3.63;;;;;;;17.05;98.08;100757.50;4974233;28;20267;-79
2022/10/23 11:12:38;;;;;;;7.85;4.20;;;;;;;17.00;100.00;100743.75;4972827;28;20019;-79
2022/10/23 11:15:11;;;;;;;5.63;3.55;;;;;;;17.03;100.00;100748.81;4962986;28;20113;-79
2022/10/23 11:17:42;;;;;;;9.60;3.33;;;;;;;17.15;100.00;100747.34;4973058;28;20030;-79
2022/10/23 11:20:18;;;;;;;8.05;3.47;;;;;;;17.18;99.33;100749.81;4967750;28;20031;-79